Petersburg, AK

6:32 PM AKST on November 23, 2017 (GMT -0900)
Johnson Petersburg | | Change Station

Elev 105 ft 56.80 °N, 132.95 °W | Updated 36 minutes ago

Light Rain
Light Rain Snow
33 °F
Feels Like 29 °F
N
5
Wind Variable Wind from SW

Today
High -- | Low -- °F
--% Chance of Precip.
Yesterday
High -- | Low -- °F
Precip. -- in
Pressure 29.33 in
Visibility 10.0 miles
Clouds Mostly Cloudy 2000 ft
Overcast 2600 ft
Windchill 29 °F
Dew Point 32 °F
Humidity 96%
Rainfall 0.26 in
Snow Depth Not available.
7:49 AM 3:26 PM
Waxing Crescent, 26% visible
METAR PAPG 240256Z 23004KT 10SM -RASN BKN020 OVC026 01/00 A2932 RMK AO2 RAB49 SLP932 P0001 60004 T00060000 56017
Pressure 29.33 in
Visibility 10.0 miles
Clouds Mostly Cloudy 2000 ft
Overcast 2600 ft
Windchill 29 °F
Dew Point 32 °F
Humidity 96%
Rainfall 0.26 in
Snow Depth Not available.
7:49 AM 3:26 PM
Waxing Crescent, 26% visible
METAR PAPG 240256Z 23004KT 10SM -RASN BKN020 OVC026 01/00 A2932 RMK AO2 RAB49 SLP932 P0001 60004 T00060000 56017

Get Severe Weather Alerts

Thanks for signing up!

Be on the lookout for a verification email in your inbox.

You'll start receiving the daily forecast at 6 AM.

×

10-Day Weather Forecast

Almanac

Astronomy

Nov. 23, 2017 Rise Set
Actual Time
Civil Twilight
Nautical Twilight
Astronomical Twilight
Moon
Length of Visible Light
Length of Day
Tomorrow will be .
, % of the Moon is Illuminated

Today's Extremes

State Highs State Lows

Community

WunderPhotos

Category 6

Welcome to Category 6. This is the collective home for Weather Underground's featured writeups by Dr. Jeff Masters (right), Bob Henson (left), Chris Burt, and other regular contributors.

Nearby

Air Quality

  Air Quality AQ Index Pollutant
Not available.

Snow Depth

Station Depth Elevation

Earthquake Activity

City Distance Mag. Time & Date
Minimum magnitude displayed is 2.5.

Coastal Water Temperatures

Place Temperature

Stations

Nearby Weather Stations

Station Location Temp. Windchill Dew Point Humidity Wind Precip. Elev Updated Type
                   

Watches & Warnings

There are currently no watches in effect.